Time;durP1;ratioP1;P1;durP2;ratioP2;P2;SDS_P1;SDS_P2;PMS_P1;PMS_P2;Temp;Humidity;BMP_temperature;BMP_pressure;BME280_temperature;BME280_humidity;BME280_pressure;Samples;Min_cycle;Max_cycle;Signal;HPM_P1;HPM_P2
2022/08/25 00:01:44;;;;;;;6.78;1.55;;;;;;;;;;5002058;28;20038;-64
2022/08/25 00:04:12;;;;;;;4.85;1.20;;;;;;;;;;5014199;28;20033;-65
2022/08/25 00:06:39;;;;;;;5.38;1.50;;;;;;;;;;4984998;28;20480;-65
2022/08/25 00:09:05;;;;;;;8.68;1.40;;;;;;;;;;4996329;28;20727;-64
2022/08/25 00:11:33;;;;;;;5.72;1.40;;;;;;;;;;4992318;28;20454;-64
2022/08/25 00:14:01;;;;;;;5.97;1.73;;;;;;;;;;5011495;28;20033;-64
2022/08/25 00:16:30;;;;;;;6.68;1.80;;;;;;;;;;5011277;28;20076;-65
2022/08/25 00:18:57;;;;;;;7.22;1.80;;;;;;;;;;5007011;28;20040;-64
2022/08/25 00:21:24;;;;;;;6.05;1.92;;;;;;;;;;4990973;28;20021;-64
2022/08/25 00:23:50;;;;;;;6.22;1.60;;;;;;;;;;5005832;28;20041;-64
2022/08/25 00:26:17;;;;;;;7.22;1.70;;;;;;;;;;4994593;28;20484;-64
2022/08/25 00:28:44;;;;;;;5.82;1.90;;;;;;;;;;5002550;28;20033;-64
2022/08/25 00:31:12;;;;;;;4.97;1.50;;;;;;;;;;5008380;28;20387;-65
2022/08/25 00:33:38;;;;;;;6.20;1.65;;;;;;;;;;5003767;28;20033;-65
2022/08/25 00:36:05;;;;;;;6.65;1.85;;;;;;;;;;5008701;28;20026;-64
2022/08/25 00:38:31;;;;;;;5.38;1.50;;;;;;;;;;5013691;28;20087;-65
2022/08/25 00:41:06;;;;;;;6.25;1.85;;;;;;;;;;5005671;28;20108;-64
2022/08/25 00:43:53;;;;;;;7.53;2.10;;;;;;;;;;5005213;28;20669;-66
2022/08/25 00:46:21;;;;;;;5.05;1.70;;;;;;;;;;5006492;28;20061;-65
2022/08/25 00:48:49;;;;;;;6.60;2.08;;;;;;;;;;5004683;28;20033;-65
2022/08/25 00:51:18;;;;;;;5.10;1.60;;;;;;;;;;4993815;28;20412;-64
2022/08/25 00:53:44;;;;;;;5.88;1.50;;;;;;;;;;5003425;28;20848;-64
2022/08/25 00:56:11;;;;;;;5.82;1.50;;;;;;;;;;5006390;28;20542;-64
2022/08/25 00:58:38;;;;;;;7.07;1.50;;;;;;;;;;5004468;28;20079;-64
2022/08/25 01:01:04;;;;;;;5.75;1.45;;;;;;;;;;4998579;28;20171;-64
2022/08/25 01:03:32;;;;;;;5.38;1.30;;;;;;;;;;4995607;28;20114;-64
2022/08/25 01:05:58;;;;;;;6.05;1.70;;;;;;;;;;5004619;28;20109;-64
2022/08/25 01:08:27;;;;;;;7.43;1.65;;;;;;;;;;5003894;28;20040;-64
2022/08/25 01:10:54;;;;;;;7.10;1.60;;;;;;;;;;5003086;28;20145;-65
2022/08/25 01:13:23;;;;;;;6.82;1.67;;;;;;;;;;5004205;28;20065;-63
2022/08/25 01:15:52;;;;;;;4.80;1.50;;;;;;;;;;5003937;28;20021;-64
2022/08/25 01:18:18;;;;;;;4.82;1.40;;;;;;;;;;5007023;28;20106;-64
2022/08/25 01:20:48;;;;;;;6.18;1.60;;;;;;;;;;5002491;28;20514;-64
2022/08/25 01:23:14;;;;;;;6.03;1.58;;;;;;;;;;4988289;28;20038;-65
2022/08/25 01:25:43;;;;;;;5.97;1.40;;;;;;;;;;4982824;28;20470;-64
2022/08/25 01:28:10;;;;;;;5.57;1.70;;;;;;;;;;5004288;28;20033;-64
2022/08/25 01:30:36;;;;;;;7.55;1.83;;;;;;;;;;4982284;28;20030;-64
2022/08/25 01:33:03;;;;;;;7.32;1.60;;;;;;;;;;5007144;28;20034;-65
2022/08/25 01:35:30;;;;;;;7.07;1.45;;;;;;;;;;5003684;28;20071;-65
2022/08/25 01:37:56;;;;;;;5.75;1.55;;;;;;;;;;5002948;28;20139;-66
2022/08/25 01:40:22;;;;;;;4.28;1.30;;;;;;;;;;5002393;28;20026;-64
2022/08/25 01:43:06;;;;;;;5.43;1.45;;;;;;;;;;5002636;28;20407;-64
2022/08/25 01:45:36;;;;;;;5.28;1.55;;;;;;;;;;5004529;28;20030;-64
2022/08/25 01:48:02;;;;;;;5.78;1.60;;;;;;;;;;5000475;28;20673;-64
2022/08/25 01:50:28;;;;;;;7.40;1.52;;;;;;;;;;4993915;28;20122;-64
2022/08/25 01:53:04;;;;;;;7.88;1.70;;;;;;;;;;5001430;28;20387;-64
2022/08/25 01:55:50;;;;;;;5.07;1.42;;;;;;;;;;5005238;28;20052;-65
2022/08/25 01:58:17;;;;;;;4.43;1.50;;;;;;;;;;4984592;28;20030;-65
2022/08/25 02:00:50;;;;;;;5.82;1.35;;;;;;;;;;4999008;28;20469;-65
2022/08/25 02:03:18;;;;;;;6.55;1.50;;;;;;;;;;5005374;28;20037;-64
2022/08/25 02:05:44;;;;;;;6.45;1.50;;;;;;;;;;5003884;28;20056;-64
2022/08/25 02:08:10;;;;;;;6.05;1.65;;;;;;;;;;4988006;28;20037;-65
2022/08/25 02:10:37;;;;;;;6.85;1.75;;;;;;;;;;5003665;28;20041;-65
2022/08/25 02:13:03;;;;;;;4.45;1.38;;;;;;;;;;4991738;28;20029;-65
2022/08/25 02:15:30;;;;;;;6.25;1.60;;;;;;;;;;5004418;28;20041;-65
2022/08/25 02:17:56;;;;;;;8.15;1.70;;;;;;;;;;5000933;28;20431;-65
2022/08/25 02:20:22;;;;;;;5.70;1.60;;;;;;;;;;5001821;28;20106;-65
2022/08/25 02:22:50;;;;;;;5.32;1.80;;;;;;;;;;4998487;28;20064;-65
2022/08/25 02:25:16;;;;;;;6.47;1.77;;;;;;;;;;4987769;28;21499;-65
2022/08/25 02:27:44;;;;;;;5.53;1.63;;;;;;;;;;5002097;28;20031;-65
2022/08/25 02:30:12;;;;;;;5.65;1.60;;;;;;;;;;4987939;28;20037;-65
2022/08/25 02:32:38;;;;;;;6.13;1.70;;;;;;;;;;5000396;28;20036;-65
2022/08/25 02:35:05;;;;;;;6.03;1.30;;;;;;;;;;5003209;28;20025;-65
2022/08/25 02:37:31;;;;;;;4.90;1.50;;;;;;;;;;5004481;28;20032;-65
2022/08/25 02:39:58;;;;;;;5.78;1.40;;;;;;;;;;4999098;28;20033;-65
2022/08/25 02:42:24;;;;;;;5.97;1.38;;;;;;;;;;5004658;28;20017;-65
2022/08/25 02:44:50;;;;;;;5.22;1.58;;;;;;;;;;5001308;28;20041;-65
2022/08/25 02:47:17;;;;;;;4.35;1.48;;;;;;;;;;5001404;28;20025;-65
2022/08/25 02:49:43;;;;;;;5.97;1.52;;;;;;;;;;4991144;28;20446;-65
2022/08/25 02:52:09;;;;;;;7.18;1.70;;;;;;;;;;4985663;28;20455;-65
2022/08/25 02:54:36;;;;;;;6.68;1.42;;;;;;;;;;4982960;28;20035;-64
2022/08/25 02:57:02;;;;;;;5.60;1.40;;;;;;;;;;5003234;28;20029;-65
2022/08/25 02:59:28;;;;;;;6.35;1.60;;;;;;;;;;4985987;28;20033;-65
2022/08/25 03:01:54;;;;;;;5.47;1.50;;;;;;;;;;4985923;28;20099;-65
2022/08/25 03:04:21;;;;;;;6.82;1.63;;;;;;;;;;5002045;28;20483;-65
2022/08/25 03:06:47;;;;;;;5.90;1.67;;;;;;;;;;5000786;28;20592;-65
2022/08/25 03:09:14;;;;;;;6.65;1.50;;;;;;;;;;5004642;28;20033;-65
2022/08/25 03:11:40;;;;;;;6.35;1.70;;;;;;;;;;5000726;28;20095;-65
2022/08/25 03:14:08;;;;;;;6.75;1.73;;;;;;;;;;5000144;28;20025;-65
2022/08/25 03:16:34;;;;;;;5.60;1.73;;;;;;;;;;4983078;28;20479;-65
2022/08/25 03:19:01;;;;;;;6.88;1.48;;;;;;;;;;5003298;28;20087;-65
2022/08/25 03:21:27;;;;;;;6.00;1.67;;;;;;;;;;5004318;28;20557;-65
2022/08/25 03:23:54;;;;;;;5.25;1.63;;;;;;;;;;5001149;28;20029;-67
2022/08/25 03:29:05;;;;;;;7.38;1.75;;;;;;;;;;5003379;28;20084;-65
2022/08/25 03:31:32;;;;;;;4.97;1.50;;;;;;;;;;5003988;28;20033;-65
2022/08/25 03:33:59;;;;;;;7.32;1.60;;;;;;;;;;4981216;28;20365;-65
2022/08/25 03:36:25;;;;;;;3.83;1.35;;;;;;;;;;5003162;28;20034;-65
2022/08/25 03:38:52;;;;;;;9.45;1.88;;;;;;;;;;4999188;28;21122;-64
2022/08/25 03:41:20;;;;;;;5.57;1.88;;;;;;;;;;5001795;28;20033;-65
2022/08/25 03:43:46;;;;;;;6.68;1.88;;;;;;;;;;5000940;28;20018;-64
2022/08/25 03:46:22;;;;;;;6.07;1.60;;;;;;;;;;5003655;28;20022;-65
2022/08/25 03:48:49;;;;;;;8.38;2.00;;;;;;;;;;4999689;28;20034;-65
2022/08/25 03:51:22;;;;;;;8.65;2.00;;;;;;;;;;4982022;28;20034;-65
2022/08/25 03:53:49;;;;;;;7.45;1.73;;;;;;;;;;4997969;28;20068;-65
2022/08/25 03:56:15;;;;;;;6.72;1.90;;;;;;;;;;4986576;28;20025;-65
2022/08/25 03:58:42;;;;;;;7.40;1.95;;;;;;;;;;5000580;28;20038;-65
2022/08/25 04:01:08;;;;;;;8.65;1.70;;;;;;;;;;4985131;28;20521;-65
2022/08/25 04:03:35;;;;;;;6.50;1.65;;;;;;;;;;4998258;28;20021;-65
2022/08/25 04:06:04;;;;;;;5.88;1.80;;;;;;;;;;5003674;28;20514;-65
2022/08/25 04:08:30;;;;;;;7.68;2.00;;;;;;;;;;5003312;28;20904;-65
2022/08/25 04:10:56;;;;;;;8.18;2.10;;;;;;;;;;4999561;28;20978;-65
2022/08/25 04:13:22;;;;;;;8.60;2.58;;;;;;;;;;5000830;28;20457;-65
2022/08/25 04:15:48;;;;;;;9.52;3.45;;;;;;;;;;5000309;28;20393;-64
2022/08/25 04:18:15;;;;;;;8.70;2.90;;;;;;;;;;5005972;28;20120;-65
2022/08/25 04:20:42;;;;;;;8.32;2.63;;;;;;;;;;4986926;28;20116;-64
2022/08/25 04:23:09;;;;;;;7.30;2.30;;;;;;;;;;5005418;28;20534;-65
2022/08/25 04:25:35;;;;;;;8.10;2.47;;;;;;;;;;5004881;28;20092;-65
2022/08/25 04:28:01;;;;;;;9.05;2.20;;;;;;;;;;5006624;28;20175;-65
2022/08/25 04:30:27;;;;;;;7.28;2.13;;;;;;;;;;5003679;28;20040;-65
2022/08/25 04:32:53;;;;;;;8.57;2.20;;;;;;;;;;5002523;28;20164;-65
2022/08/25 04:35:21;;;;;;;8.98;2.40;;;;;;;;;;5007030;28;20820;-65
2022/08/25 04:37:47;;;;;;;6.03;1.80;;;;;;;;;;5004256;28;20523;-65
2022/08/25 04:40:13;;;;;;;6.93;2.05;;;;;;;;;;4986387;28;20029;-67
2022/08/25 04:42:39;;;;;;;6.65;1.70;;;;;;;;;;5002151;28;20610;-66
2022/08/25 04:45:06;;;;;;;7.32;1.67;;;;;;;;;;5004505;28;20420;-64
2022/08/25 04:47:36;;;;;;;5.25;1.50;;;;;;;;;;5005411;28;20123;-65
2022/08/25 04:50:02;;;;;;;8.65;2.17;;;;;;;;;;5006062;28;20029;-64
2022/08/25 04:52:28;;;;;;;6.93;1.98;;;;;;;;;;5004686;28;20034;-65
2022/08/25 04:54:55;;;;;;;8.65;2.60;;;;;;;;;;5007210;28;20025;-64
2022/08/25 04:57:21;;;;;;;8.77;3.38;;;;;;;;;;5004914;28;20021;-65
2022/08/25 04:59:47;;;;;;;14.07;6.32;;;;;;;;;;5006884;28;20034;-65
2022/08/25 05:02:14;;;;;;;14.90;7.32;;;;;;;;;;4991634;28;20829;-64
2022/08/25 05:04:40;;;;;;;11.05;3.95;;;;;;;;;;5004259;28;20072;-65
2022/08/25 05:07:06;;;;;;;8.95;2.40;;;;;;;;;;5013409;28;20025;-64
2022/08/25 05:09:33;;;;;;;9.60;2.70;;;;;;;;;;4993998;28;20545;-65
2022/08/25 05:12:00;;;;;;;9.68;2.90;;;;;;;;;;5006181;28;20029;-65
2022/08/25 05:14:26;;;;;;;14.55;4.40;;;;;;;;;;5009581;28;20216;-65
2022/08/25 05:16:52;;;;;;;11.02;3.78;;;;;;;;;;5006749;28;20040;-65
2022/08/25 05:19:18;;;;;;;9.70;3.60;;;;;;;;;;4991621;28;20044;-65
2022/08/25 05:21:44;;;;;;;12.75;3.78;;;;;;;;;;5008699;28;20507;-65
2022/08/25 05:24:10;;;;;;;9.80;2.60;;;;;;;;;;5008033;28;20037;-66
2022/08/25 05:26:37;;;;;;;10.95;2.75;;;;;;;;;;5005625;28;20040;-66
2022/08/25 05:29:04;;;;;;;9.18;2.70;;;;;;;;;;5009719;28;20443;-66
2022/08/25 05:31:30;;;;;;;7.28;2.00;;;;;;;;;;5011930;28;20122;-66
2022/08/25 05:33:57;;;;;;;5.22;1.70;;;;;;;;;;5007265;28;20337;-66
2022/08/25 05:36:25;;;;;;;8.60;1.77;;;;;;;;;;4991033;28;20515;-66
2022/08/25 05:38:52;;;;;;;7.30;2.22;;;;;;;;;;5002003;28;20605;-66
2022/08/25 05:41:19;;;;;;;7.45;1.63;;;;;;;;;;5007691;28;20033;-66
2022/08/25 05:43:47;;;;;;;6.10;1.63;;;;;;;;;;5006862;28;20033;-66
2022/08/25 05:46:14;;;;;;;6.30;1.42;;;;;;;;;;5009671;28;20033;-66
2022/08/25 05:48:40;;;;;;;5.57;1.50;;;;;;;;;;4984287;28;20104;-66
2022/08/25 05:51:09;;;;;;;5.22;1.67;;;;;;;;;;5006146;28;20063;-66
2022/08/25 05:53:35;;;;;;;7.15;1.80;;;;;;;;;;4983558;28;20045;-66
2022/08/25 05:56:01;;;;;;;5.93;1.60;;;;;;;;;;4987892;28;20041;-65
2022/08/25 05:58:28;;;;;;;8.00;2.10;;;;;;;;;;5004850;28;20033;-65
2022/08/25 06:00:54;;;;;;;7.03;1.55;;;;;;;;;;4987787;28;20036;-65
2022/08/25 06:03:20;;;;;;;7.25;1.80;;;;;;;;;;4986048;28;20033;-65
2022/08/25 06:05:47;;;;;;;7.05;1.90;;;;;;;;;;4983511;28;20438;-66
2022/08/25 06:08:14;;;;;;;7.38;1.75;;;;;;;;;;5003741;28;20021;-65
2022/08/25 06:10:40;;;;;;;6.68;1.90;;;;;;;;;;5000524;28;20115;-65
2022/08/25 06:13:07;;;;;;;7.50;1.65;;;;;;;;;;5003073;28;20133;-65
2022/08/25 06:15:33;;;;;;;11.38;1.70;;;;;;;;;;5004931;28;20033;-65
2022/08/25 06:18:01;;;;;;;8.63;1.83;;;;;;;;;;5003210;28;20025;-65
2022/08/25 06:20:28;;;;;;;20.33;3.20;;;;;;;;;;4986992;28;20738;-65
2022/08/25 06:22:54;;;;;;;14.50;2.97;;;;;;;;;;4998724;28;20502;-66
2022/08/25 06:25:21;;;;;;;11.20;2.20;;;;;;;;;;5004371;28;20041;-64
2022/08/25 06:27:47;;;;;;;10.90;2.53;;;;;;;;;;4986525;28;20521;-65
2022/08/25 06:30:15;;;;;;;10.50;2.00;;;;;;;;;;5003414;28;20376;-64
2022/08/25 06:32:42;;;;;;;9.05;1.90;;;;;;;;;;5001321;28;20044;-65
2022/08/25 06:35:10;;;;;;;8.32;1.92;;;;;;;;;;5001212;28;20025;-64
2022/08/25 06:37:36;;;;;;;11.18;2.72;;;;;;;;;;4981990;28;20061;-64
2022/08/25 06:40:03;;;;;;;12.15;3.42;;;;;;;;;;5002432;28;20471;-64
2022/08/25 06:42:29;;;;;;;11.88;3.53;;;;;;;;;;5002336;28;20029;-65
2022/08/25 06:44:55;;;;;;;10.05;2.95;;;;;;;;;;5000246;28;20216;-65
2022/08/25 06:47:21;;;;;;;9.18;2.90;;;;;;;;;;4983198;28;20140;-65
2022/08/25 06:49:47;;;;;;;13.40;2.90;;;;;;;;;;5000235;28;20071;-66
2022/08/25 06:52:14;;;;;;;13.57;3.03;;;;;;;;;;5001237;28;20113;-65
2022/08/25 06:54:40;;;;;;;14.52;3.22;;;;;;;;;;4982847;28;20551;-65
2022/08/25 06:57:06;;;;;;;11.63;2.78;;;;;;;;;;4991776;28;20289;-66
2022/08/25 06:59:36;;;;;;;9.90;2.80;;;;;;;;;;4988949;28;20407;-65
2022/08/25 07:02:03;;;;;;;19.23;5.53;;;;;;;;;;5002575;28;20095;-65
2022/08/25 07:04:30;;;;;;;13.88;4.10;;;;;;;;;;5001051;28;20083;-66
2022/08/25 07:06:56;;;;;;;11.55;3.95;;;;;;;;;;5000067;28;20033;-65
2022/08/25 07:09:22;;;;;;;16.52;4.70;;;;;;;;;;5002831;28;20042;-65
2022/08/25 07:11:48;;;;;;;12.57;3.88;;;;;;;;;;4988571;28;20444;-65
2022/08/25 07:14:15;;;;;;;9.38;2.70;;;;;;;;;;5001382;28;20484;-65
2022/08/25 07:16:42;;;;;;;12.55;3.40;;;;;;;;;;4999635;28;20021;-67
2022/08/25 07:19:09;;;;;;;9.90;3.10;;;;;;;;;;5002478;28;20061;-65
2022/08/25 07:21:36;;;;;;;10.32;4.15;;;;;;;;;;4999847;28;20522;-65
2022/08/25 07:24:05;;;;;;;10.90;4.22;;;;;;;;;;4983728;28;20034;-65
2022/08/25 07:26:33;;;;;;;10.00;2.80;;;;;;;;;;5003054;28;20018;-65
2022/08/25 07:28:59;;;;;;;11.40;3.17;;;;;;;;;;5000287;28;20387;-66
2022/08/25 07:31:26;;;;;;;13.57;4.72;;;;;;;;;;5001463;28;20615;-65
2022/08/25 07:36:37;;;;;;;11.35;2.88;;;;;;;;;;5000678;28;20080;-65
2022/08/25 07:39:04;;;;;;;10.60;2.45;;;;;;;;;;4999144;28;20565;-66
2022/08/25 07:41:41;;;;;;;8.95;2.45;;;;;;;;;;4999982;28;20050;-64
2022/08/25 07:44:08;;;;;;;8.48;1.95;;;;;;;;;;4983510;28;20040;-65
2022/08/25 07:46:34;;;;;;;8.45;2.22;;;;;;;;;;4980852;28;20439;-65
2022/08/25 07:49:00;;;;;;;9.50;2.40;;;;;;;;;;4985067;28;20083;-65
2022/08/25 07:51:26;;;;;;;7.43;2.38;;;;;;;;;;5002023;28;20030;-65
2022/08/25 07:53:52;;;;;;;8.18;2.50;;;;;;;;;;5002340;28;20050;-65
2022/08/25 07:56:19;;;;;;;9.30;2.05;;;;;;;;;;5006422;28;20247;-68
2022/08/25 07:58:46;;;;;;;5.63;1.55;;;;;;;;;;5000323;28;20271;-65
2022/08/25 08:01:13;;;;;;;7.05;1.77;;;;;;;;;;5005440;28;20032;-65
2022/08/25 08:03:41;;;;;;;7.78;1.60;;;;;;;;;;4985468;28;20041;-65
2022/08/25 08:06:07;;;;;;;8.73;1.70;;;;;;;;;;4994599;28;20030;-65
2022/08/25 08:08:33;;;;;;;6.60;1.75;;;;;;;;;;5006081;28;20423;-65
2022/08/25 08:10:59;;;;;;;6.63;1.77;;;;;;;;;;5004451;28;20025;-66
2022/08/25 08:13:25;;;;;;;7.72;1.45;;;;;;;;;;5006025;28;20452;-65
2022/08/25 08:15:52;;;;;;;6.50;1.80;;;;;;;;;;5004463;28;20134;-65
2022/08/25 08:18:18;;;;;;;8.52;1.90;;;;;;;;;;4989839;28;20473;-65
2022/08/25 08:20:46;;;;;;;6.53;1.50;;;;;;;;;;5003691;28;20342;-65
2022/08/25 08:23:12;;;;;;;7.85;1.58;;;;;;;;;;5006819;28;20537;-66
2022/08/25 08:25:38;;;;;;;6.88;1.50;;;;;;;;;;5003543;28;20111;-65
2022/08/25 08:28:05;;;;;;;9.43;1.85;;;;;;;;;;5006079;28;20634;-65
2022/08/25 08:30:31;;;;;;;7.88;1.65;;;;;;;;;;4992651;28;20029;-68
2022/08/25 08:32:57;;;;;;;4.03;1.17;;;;;;;;;;5002325;28;20032;-65
2022/08/25 08:35:23;;;;;;;7.60;1.20;;;;;;;;;;5002756;28;20075;-66
2022/08/25 08:37:49;;;;;;;4.43;1.30;;;;;;;;;;5000657;28;20108;-66
2022/08/25 08:40:18;;;;;;;4.70;1.13;;;;;;;;;;5006860;28;20025;-66
2022/08/25 08:42:47;;;;;;;4.70;1.33;;;;;;;;;;5001300;28;20026;-66
2022/08/25 08:45:32;;;;;;;5.95;1.48;;;;;;;;;;5006085;28;20029;-67
2022/08/25 08:48:17;;;;;;;4.68;1.10;;;;;;;;;;5002450;28;20056;-67
2022/08/25 08:51:05;;;;;;;5.32;1.33;;;;;;;;;;5001552;28;20018;-65
2022/08/25 08:53:41;;;;;;;6.60;1.52;;;;;;;;;;5005004;28;20389;-64
2022/08/25 08:56:07;;;;;;;;;;;;;;;;;;5006483;28;20040;-66
2022/08/25 08:58:48;;;;;;;5.35;1.10;;;;;;;;;;5006128;28;20584;-67
2022/08/25 09:01:23;;;;;;;4.03;1.20;;;;;;;;;;5006401;28;20032;-67
2022/08/25 09:03:51;;;;;;;5.40;1.20;;;;;;;;;;4999381;28;20045;-67
2022/08/25 09:06:28;;;;;;;4.78;1.15;;;;;;;;;;5004561;28;20308;-65
2022/08/25 09:08:57;;;;;;;5.68;1.30;;;;;;;;;;5001915;28;20034;-66
2022/08/25 09:11:41;;;;;;;5.85;1.20;;;;;;;;;;5005069;28;20041;-66
2022/08/25 09:14:09;;;;;;;7.30;1.60;;;;;;;;;;4985545;28;20037;-66
2022/08/25 09:16:56;;;;;;;3.72;1.17;;;;;;;;;;5000039;28;20022;-66
2022/08/25 09:19:30;;;;;;;5.53;1.30;;;;;;;;;;5004037;28;20047;-66
2022/08/25 09:22:05;;;;;;;4.60;1.20;;;;;;;;;;5001220;28;20029;-66
2022/08/25 09:24:48;;;;;;;7.30;1.23;;;;;;;;;;5001647;28;20651;-66
2022/08/25 09:27:23;;;;;;;4.45;1.13;;;;;;;;;;4986603;28;20033;-66
2022/08/25 09:30:01;;;;;;;5.38;1.20;;;;;;;;;;5001977;28;20036;-66
2022/08/25 09:32:29;;;;;;;7.03;1.70;;;;;;;;;;5000897;28;20376;-66
2022/08/25 09:34:56;;;;;;;8.30;2.10;;;;;;;;;;5001039;28;20053;-66
2022/08/25 09:37:23;;;;;;;5.85;1.60;;;;;;;;;;5002768;28;20025;-65
2022/08/25 09:39:49;;;;;;;8.73;1.65;;;;;;;;;;4981245;28;20494;-66
2022/08/25 09:42:17;;;;;;;4.68;1.30;;;;;;;;;;5003843;28;20659;-66
2022/08/25 09:44:45;;;;;;;6.15;1.30;;;;;;;;;;4999956;28;20325;-66
2022/08/25 09:47:18;;;;;;;4.03;1.00;;;;;;;;;;5004119;28;20036;-66
2022/08/25 09:49:46;;;;;;;9.30;1.27;;;;;;;;;;4999662;28;20254;-65
2022/08/25 09:52:22;;;;;;;4.57;1.10;;;;;;;;;;4992353;28;20049;-66
2022/08/25 09:54:49;;;;;;;;;;;;;;;;;;5018193;28;20036;-66
2022/08/25 09:57:35;;;;;;;5.82;1.67;;;;;;;;;;5023362;28;19917;-66
2022/08/25 10:00:12;;;;;;;5.70;1.40;;;;;;;;;;5020639;28;20139;-66
2022/08/25 10:02:40;;;;;;;4.65;1.10;;;;;;;;;;5020533;28;20024;-66
2022/08/25 10:05:25;;;;;;;5.97;1.27;;;;;;;;;;5022564;28;20695;-66
2022/08/25 10:07:54;;;;;;;6.07;1.52;;;;;;;;;;5020851;28;20059;-66
2022/08/25 10:10:35;;;;;;;3.30;1.00;;;;;;;;;;5017459;28;20025;-66
2022/08/25 10:13:02;;;;;;;4.00;1.10;;;;;;;;;;5023300;28;20032;-66
2022/08/25 10:15:31;;;;;;;5.18;1.10;;;;;;;;;;5023924;28;20028;-66
2022/08/25 10:18:17;;;;;;;4.78;1.00;;;;;;;;;;5021387;28;20032;-66
2022/08/25 10:20:43;;;;;;;5.32;1.30;;;;;;;;;;5006330;28;20990;-66
2022/08/25 10:23:14;;;;;;;3.88;1.00;;;;;;;;;;5003465;28;20036;-66
2022/08/25 10:25:50;;;;;;;4.93;1.20;;;;;;;;;;5021214;28;20531;-68
2022/08/25 10:28:19;;;;;;;6.40;1.30;;;;;;;;;;5023223;28;20051;-66
2022/08/25 10:30:48;;;;;;;5.57;1.20;;;;;;;;;;5020355;28;20045;-65
2022/08/25 10:33:33;;;;;;;4.25;1.20;;;;;;;;;;5011986;28;20090;-66
2022/08/25 10:36:05;;;;;;;5.85;1.60;;;;;;;;;;5018424;28;20039;-65
2022/08/25 10:38:37;;;;;;;4.53;1.10;;;;;;;;;;5017683;28;20498;-66
2022/08/25 10:41:03;;;;;;;3.85;1.20;;;;;;;;;;5020663;28;20029;-65
2022/08/25 10:43:41;;;;;;;4.95;1.30;;;;;;;;;;5023134;28;20029;-66
2022/08/25 10:46:07;;;;;;;4.22;1.42;;;;;;;;;;5021881;28;20060;-64
2022/08/25 10:48:52;;;;;;;5.35;1.33;;;;;;;;;;5022333;28;20106;-64
2022/08/25 10:51:37;;;;;;;3.33;0.90;;;;;;;;;;5018718;28;20479;-66
2022/08/25 10:54:15;;;;;;;4.60;1.00;;;;;;;;;;5004166;28;20235;-64
2022/08/25 10:56:45;;;;;;;3.40;0.90;;;;;;;;;;4999377;28;20047;-65
2022/08/25 10:59:37;;;;;;;4.55;1.00;;;;;;;;;;5002963;28;20032;-65
2022/08/25 11:02:06;;;;;;;3.92;1.00;;;;;;;;;;5003520;28;20479;-65
2022/08/25 11:04:38;;;;;;;4.50;1.30;;;;;;;;;;4988555;28;20036;-65
2022/08/25 11:07:22;;;;;;;6.72;1.30;;;;;;;;;;5001896;28;20057;-65
2022/08/25 11:09:50;;;;;;;5.50;1.20;;;;;;;;;;4996696;28;20029;-64
2022/08/25 11:12:24;;;;;;;6.18;1.60;;;;;;;;;;5001588;28;20454;-67
2022/08/25 11:15:01;;;;;;;5.65;1.38;;;;;;;;;;4998335;28;20108;-66
2022/08/25 11:17:51;;;;;;;6.60;1.40;;;;;;;;;;4986018;28;20026;-66
2022/08/25 11:20:21;;;;;;;6.57;1.42;;;;;;;;;;4996748;28;20080;-66
2022/08/25 11:22:51;;;;;;;4.72;1.10;;;;;;;;;;4996886;28;20044;-66
2022/08/25 11:25:21;;;;;;;6.15;1.40;;;;;;;;;;5001444;28;20425;-66
2022/08/25 11:27:47;;;;;;;7.70;1.65;;;;;;;;;;4996656;28;20511;-66
2022/08/25 11:30:16;;;;;;;3.53;1.10;;;;;;;;;;5002779;28;20022;-66
2022/08/25 11:32:44;;;;;;;5.72;1.30;;;;;;;;;;4996417;28;20549;-66
2022/08/25 11:35:11;;;;;;;5.82;1.20;;;;;;;;;;5002696;28;20021;-66
2022/08/25 11:37:58;;;;;;;5.32;1.23;;;;;;;;;;4997941;28;20581;-66
2022/08/25 11:40:33;;;;;;;3.85;1.17;;;;;;;;;;4961857;28;20052;-67
2022/08/25 11:42:59;;;;;;;3.35;1.08;;;;;;;;;;5003204;28;20029;-65
2022/08/25 11:45:51;;;;;;;5.72;1.33;;;;;;;;;;5002902;28;20778;-65
2022/08/25 11:48:35;;;;;;;4.90;1.10;;;;;;;;;;5001586;28;20057;-65
2022/08/25 11:51:03;;;;;;;7.72;1.60;;;;;;;;;;5000876;28;20029;-66
2022/08/25 11:53:34;;;;;;;5.47;1.10;;;;;;;;;;5014827;28;20053;-65
2022/08/25 11:56:21;;;;;;;3.40;1.17;;;;;;;;;;5003921;28;20047;-66
2022/08/25 11:58:51;;;;;;;5.78;1.10;;;;;;;;;;5006840;28;20132;-65
2022/08/25 12:01:35;;;;;;;4.78;1.00;;;;;;;;;;5020130;28;20675;-64
2022/08/25 12:04:20;;;;;;;5.15;1.10;;;;;;;;;;5021720;28;20124;-65
2022/08/25 12:07:18;;;;;;;6.40;1.42;;;;;;;;;;5016570;28;20036;-65
2022/08/25 12:09:52;;;;;;;4.45;1.00;;;;;;;;;;4976911;28;20069;-65
2022/08/25 12:12:27;;;;;;;5.68;1.10;;;;;;;;;;4980099;28;20412;-65
2022/08/25 12:14:53;;;;;;;5.60;1.20;;;;;;;;;;4976170;28;20803;-65
2022/08/25 12:17:36;;;;;;;6.47;1.08;;;;;;;;;;4980182;28;20125;-65
2022/08/25 12:20:04;;;;;;;4.63;1.23;;;;;;;;;;4980197;28;20048;-66
2022/08/25 12:22:30;;;;;;;9.48;1.70;;;;;;;;;;4978462;28;20197;-67
2022/08/25 12:25:02;;;;;;;6.82;1.63;;;;;;;;;;4976579;28;20519;-66
2022/08/25 12:27:30;;;;;;;5.88;1.33;;;;;;;;;;4976722;28;20337;-66
2022/08/25 12:30:14;;;;;;;5.40;1.45;;;;;;;;;;4976226;28;20038;-65
2022/08/25 12:32:59;;;;;;;6.00;1.40;;;;;;;;;;4958632;28;20038;-65
2022/08/25 12:35:26;;;;;;;4.45;1.10;;;;;;;;;;4979629;28;20033;-65
2022/08/25 12:38:12;;;;;;;2.85;0.85;;;;;;;;;;4976765;28;20034;-66
2022/08/25 12:40:44;;;;;;;4.72;1.27;;;;;;;;;;4962583;28;20057;-66
2022/08/25 12:43:19;;;;;;;5.30;1.35;;;;;;;;;;4980529;28;20021;-66
2022/08/25 12:45:45;;;;;;;;;;;;;;;;;;5007858;28;20049;-66
2022/08/25 12:48:26;;;;;;;8.68;1.20;;;;;;;;;;5023511;28;20426;-66
2022/08/25 12:51:16;;;;;;;5.28;1.25;;;;;;;;;;5019692;28;20459;-66
2022/08/25 12:53:52;;;;;;;6.80;1.50;;;;;;;;;;5002489;28;20148;-65
2022/08/25 12:56:18;;;;;;;4.25;1.00;;;;;;;;;;5007788;28;20550;-65
2022/08/25 12:58:49;;;;;;;4.50;1.05;;;;;;;;;;4985022;28;20041;-66
2022/08/25 13:01:36;;;;;;;3.15;0.90;;;;;;;;;;5005622;28;20029;-67
2022/08/25 13:04:05;;;;;;;5.05;1.00;;;;;;;;;;5008399;28;20167;-66
2022/08/25 13:06:31;;;;;;;3.55;1.00;;;;;;;;;;4992966;28;20033;-67
2022/08/25 13:09:16;;;;;;;3.42;0.85;;;;;;;;;;5006813;28;20044;-65
2022/08/25 13:11:42;;;;;;;;;;;;;;;;;;5006335;28;20440;-65
2022/08/25 13:14:27;;;;;;;5.22;1.00;;;;;;;;;;5011222;28;20418;-65
2022/08/25 13:16:57;;;;;;;3.55;0.88;;;;;;;;;;4983019;28;20968;-65
2022/08/25 13:19:24;;;;;;;4.72;1.30;;;;;;;;;;5006855;28;20033;-65
2022/08/25 13:21:51;;;;;;;4.32;1.00;;;;;;;;;;5010579;28;20260;-65
2022/08/25 13:24:33;;;;;;;5.28;1.40;;;;;;;;;;5009287;28;20876;-65
2022/08/25 13:27:02;;;;;;;6.03;0.93;;;;;;;;;;4991145;28;20036;-66
2022/08/25 13:29:29;;;;;;;3.13;1.00;;;;;;;;;;4994554;28;20388;-67
2022/08/25 13:32:03;;;;;;;4.38;1.00;;;;;;;;;;5004368;28;20037;-65
2022/08/25 13:34:31;;;;;;;3.70;1.00;;;;;;;;;;5009022;28;20046;-65
2022/08/25 13:39:48;;;;;;;6.60;1.10;;;;;;;;;;5002425;28;20090;-65
2022/08/25 13:42:15;;;;;;;2.75;0.80;;;;;;;;;;5008827;28;20068;-66
2022/08/25 13:44:42;;;;;;;3.83;0.90;;;;;;;;;;5006015;28;20137;-65
2022/08/25 13:47:15;;;;;;;5.63;1.20;;;;;;;;;;5008276;28;20037;-66
2022/08/25 13:49:42;;;;;;;3.60;1.00;;;;;;;;;;4984051;28;20041;-65
2022/08/25 13:52:14;;;;;;;7.80;1.00;;;;;;;;;;5004839;28;20498;-65
2022/08/25 13:54:43;;;;;;;7.50;1.25;;;;;;;;;;4998754;28;20092;-66
2022/08/25 13:57:21;;;;;;;4.70;1.10;;;;;;;;;;5002639;28;20353;-66
2022/08/25 13:59:49;;;;;;;4.00;0.80;;;;;;;;;;5001306;28;20037;-65
2022/08/25 14:02:35;;;;;;;4.50;1.10;;;;;;;;;;5003323;28;20037;-66
2022/08/25 14:05:01;;;;;;;3.78;0.93;;;;;;;;;;4998981;28;20045;-66
2022/08/25 14:07:28;;;;;;;4.53;1.20;;;;;;;;;;5001349;28;20033;-66
2022/08/25 14:09:55;;;;;;;7.57;1.40;;;;;;;;;;4955461;28;20040;-65
2022/08/25 14:12:30;;;;;;;5.25;1.13;;;;;;;;;;4952757;28;20037;-65
2022/08/25 14:15:05;;;;;;;4.60;1.00;;;;;;;;;;4986698;28;20040;-66
2022/08/25 14:17:32;;;;;;;5.05;1.23;;;;;;;;;;5006973;28;20087;-65
2022/08/25 14:19:58;;;;;;;5.15;1.17;;;;;;;;;;5003127;28;20025;-64
2022/08/25 14:22:25;;;;;;;3.83;1.00;;;;;;;;;;5005741;28;20068;-65
2022/08/25 14:24:51;;;;;;;5.28;1.15;;;;;;;;;;5001920;28;20754;-66
2022/08/25 14:27:17;;;;;;;7.03;1.38;;;;;;;;;;5001593;28;20025;-66
2022/08/25 14:29:44;;;;;;;5.95;1.20;;;;;;;;;;5003531;28;20029;-67
2022/08/25 14:32:11;;;;;;;8.48;1.50;;;;;;;;;;4989580;28;20060;-67
2022/08/25 14:34:38;;;;;;;7.90;1.42;;;;;;;;;;5003726;28;20105;-67
2022/08/25 14:37:18;;;;;;;8.38;1.35;;;;;;;;;;5007665;28;20510;-66
2022/08/25 14:39:44;;;;;;;7.40;1.30;;;;;;;;;;5000787;28;20029;-67
2022/08/25 14:42:11;;;;;;;8.13;1.40;;;;;;;;;;5007286;28;20026;-66
2022/08/25 14:44:37;;;;;;;4.70;1.30;;;;;;;;;;5004958;28;20440;-67
2022/08/25 14:47:05;;;;;;;5.85;1.30;;;;;;;;;;4979168;28;20042;-66
2022/08/25 14:49:34;;;;;;;6.30;1.20;;;;;;;;;;4959680;28;20344;-66
2022/08/25 14:52:09;;;;;;;9.73;1.67;;;;;;;;;;4968544;28;20471;-67
2022/08/25 14:54:35;;;;;;;7.93;1.70;;;;;;;;;;4971516;28;20442;-66
2022/08/25 14:57:01;;;;;;;5.38;1.38;;;;;;;;;;4972407;28;20037;-66
2022/08/25 14:59:27;;;;;;;8.00;1.45;;;;;;;;;;4974875;28;20029;-66
2022/08/25 15:01:54;;;;;;;6.18;1.70;;;;;;;;;;4969243;28;20484;-66
2022/08/25 15:04:22;;;;;;;6.75;1.60;;;;;;;;;;4971693;28;20021;-67
2022/08/25 15:06:50;;;;;;;6.15;1.60;;;;;;;;;;4971342;28;20629;-68